ウェーク島 の空港の天気 - METARとTAF

ウェーク島空軍基地 ( PWAK / AWK ) - 合衆国領有小離島 ウェーク島
飛行場実況気象(Metar)
観測時間11/27 09:58 WAKT (11/26 21:58 UTC)
風向・風速東北東 7m/s
視程10km以上
天気現象
全天を覆う雲 雲底高度 1830m
気温28℃
湿度79%
気圧1017.2hPa
METARPWAK 262158Z AUTO 07014KT 9999 OVC060 28/24 A3002 RMK AO2 SLP172
過去の天気等 Google飛行場航空写真 Wunderground天気予報

過去48時間のMETAR

飛行場予報(TAF)
データがありません